createdAt,value
2023-03-17T00:00:50.347Z,100.00
2023-03-17T00:03:29.920Z,100.00
2023-03-17T00:06:00.159Z,100.00
2023-03-17T00:08:32.710Z,100.00
2023-03-17T00:11:01.286Z,100.00
2023-03-17T00:13:31.131Z,100.00
2023-03-17T00:16:05.525Z,100.00
2023-03-17T00:18:35.540Z,100.00
2023-03-17T00:21:04.649Z,100.00
2023-03-17T00:23:32.634Z,100.00
2023-03-17T00:26:00.592Z,100.00
2023-03-17T00:28:28.535Z,100.00
2023-03-17T00:30:59.716Z,100.00
2023-03-17T00:33:33.134Z,100.00
2023-03-17T00:36:01.848Z,100.00
2023-03-17T00:38:30.295Z,100.00
2023-03-17T00:41:00.431Z,100.00
2023-03-17T00:43:30.582Z,100.00
2023-03-17T00:45:58.987Z,100.00
2023-03-17T00:48:30.164Z,100.00
2023-03-17T00:50:58.159Z,100.00
2023-03-17T00:53:29.876Z,100.00
2023-03-17T00:56:01.401Z,100.00
2023-03-17T00:58:33.604Z,100.00
2023-03-17T01:01:02.420Z,100.00
2023-03-17T01:03:31.315Z,100.00
2023-03-17T01:06:00.196Z,100.00
2023-03-17T01:08:30.261Z,100.00
2023-03-17T01:10:59.742Z,100.00
2023-03-17T01:13:27.724Z,100.00
2023-03-17T01:15:57.275Z,100.00
2023-03-17T01:18:25.974Z,100.00
2023-03-17T01:20:54.023Z,100.00
2023-03-17T01:23:22.547Z,100.00
2023-03-17T01:25:51.165Z,100.00
2023-03-17T01:28:20.457Z,100.00
2023-03-17T01:30:49.314Z,100.00
2023-03-17T01:33:19.204Z,100.00
2023-03-17T01:35:47.306Z,100.00
2023-03-17T01:38:15.782Z,100.00
2023-03-17T01:40:48.417Z,100.00
2023-03-17T01:43:24.492Z,100.00
2023-03-17T01:46:27.898Z,100.00
2023-03-17T01:49:05.879Z,100.00
2023-03-17T01:52:16.648Z,100.00
2023-03-17T01:55:14.723Z,100.00
2023-03-17T01:57:53.650Z,100.00
2023-03-17T02:00:25.001Z,100.00
2023-03-17T02:02:56.654Z,100.00
2023-03-17T02:05:29.931Z,100.00
2023-03-17T02:07:58.922Z,100.00
2023-03-17T02:10:30.532Z,100.00
2023-03-17T02:13:04.081Z,100.00
2023-03-17T02:15:48.587Z,100.00
2023-03-17T02:18:20.793Z,100.00
2023-03-17T02:20:48.658Z,100.00
2023-03-17T02:23:24.222Z,100.00
2023-03-17T02:25:53.965Z,100.00
2023-03-17T02:28:28.139Z,100.00
2023-03-17T02:30:57.460Z,100.00
2023-03-17T02:33:25.411Z,100.00
2023-03-17T02:35:57.281Z,100.00
2023-03-17T02:38:25.410Z,100.00
2023-03-17T02:40:53.409Z,100.00
2023-03-17T02:43:21.916Z,100.00
2023-03-17T02:45:49.913Z,100.00
2023-03-17T02:48:18.175Z,100.00
2023-03-17T02:50:46.486Z,100.00
2023-03-17T02:53:14.313Z,100.00
2023-03-17T02:55:43.755Z,100.00
2023-03-17T02:58:11.893Z,100.00
2023-03-17T03:00:40.619Z,100.00
2023-03-17T03:03:08.570Z,100.00
2023-03-17T03:05:36.737Z,100.00
2023-03-17T03:08:04.952Z,100.00
2023-03-17T03:10:32.908Z,100.00
2023-03-17T03:13:01.828Z,100.00
2023-03-17T03:15:29.690Z,100.00
2023-03-17T03:17:57.726Z,100.00
2023-03-17T03:20:25.910Z,100.00
2023-03-17T03:22:53.823Z,100.00
2023-03-17T03:25:22.066Z,100.00
2023-03-17T03:27:50.281Z,100.00
2023-03-17T03:30:18.354Z,100.00
2023-03-17T03:32:47.600Z,100.00
2023-03-17T03:35:15.981Z,100.00
2023-03-17T03:37:43.925Z,100.00
2023-03-17T03:40:12.767Z,100.00
2023-03-17T03:42:41.176Z,100.00
2023-03-17T03:45:10.061Z,100.00
2023-03-17T03:47:37.948Z,100.00
2023-03-17T03:50:07.148Z,100.00
2023-03-17T03:52:35.668Z,100.00
2023-03-17T03:55:04.482Z,100.00
2023-03-17T03:57:32.715Z,100.00
2023-03-17T04:00:00.786Z,100.00
2023-03-17T04:02:29.900Z,100.00
2023-03-17T04:04:58.600Z,100.00
2023-03-17T04:07:27.517Z,100.00
2023-03-17T04:09:55.703Z,100.00
2023-03-17T04:12:23.862Z,100.00
2023-03-17T04:14:51.838Z,100.00
2023-03-17T04:17:19.830Z,100.00
2023-03-17T04:19:48.573Z,100.00
2023-03-17T04:22:16.561Z,100.00
2023-03-17T04:24:44.543Z,100.00
2023-03-17T04:27:12.715Z,100.00
2023-03-17T04:29:40.674Z,100.00
2023-03-17T04:33:24.769Z,100.00
2023-03-17T04:35:52.999Z,100.00
2023-03-17T04:38:20.885Z,100.00
2023-03-17T04:40:50.803Z,100.00
2023-03-17T04:43:18.953Z,100.00
2023-03-17T04:45:46.869Z,100.00
2023-03-17T04:48:14.950Z,100.00
2023-03-17T04:50:42.934Z,100.00
2023-03-17T04:53:10.896Z,100.00
2023-03-17T04:55:39.391Z,100.00
2023-03-17T04:58:08.347Z,100.00
2023-03-17T05:00:38.930Z,100.00
2023-03-17T05:03:20.022Z,100.00
2023-03-17T05:05:54.005Z,100.00
2023-03-17T05:08:22.096Z,100.00
2023-03-17T05:10:51.556Z,100.00
2023-03-17T05:13:19.551Z,100.00
2023-03-17T05:15:49.015Z,100.00
2023-03-17T05:18:18.343Z,100.00
2023-03-17T05:23:26.350Z,100.00
2023-03-17T05:25:54.682Z,100.00
2023-03-17T05:28:23.644Z,100.00
2023-03-17T05:30:53.234Z,100.00
2023-03-17T05:33:22.030Z,100.00
2023-03-17T05:35:50.316Z,100.00
2023-03-17T05:38:19.142Z,100.00
2023-03-17T05:40:51.501Z,100.00
2023-03-17T05:43:19.819Z,100.00
2023-03-17T05:45:50.706Z,100.00
2023-03-17T05:48:18.954Z,100.00
2023-03-17T05:50:47.658Z,100.00
2023-03-17T05:53:16.416Z,100.00
2023-03-17T05:55:45.111Z,100.00
2023-03-17T05:58:15.695Z,100.00
2023-03-17T06:00:44.028Z,100.00
2023-03-17T06:03:12.204Z,100.00
2023-03-17T06:05:41.400Z,100.00
2023-03-17T06:08:10.389Z,100.00
2023-03-17T06:10:38.601Z,100.00
2023-03-17T06:13:06.775Z,100.00
2023-03-17T06:15:37.018Z,100.00
2023-03-17T06:18:06.029Z,100.00
2023-03-17T06:20:35.618Z,100.00
2023-03-17T06:23:05.921Z,100.00
2023-03-17T06:25:35.602Z,100.00
2023-03-17T06:28:05.817Z,100.00
2023-03-17T06:30:35.378Z,100.00
2023-03-17T06:33:04.299Z,100.00
2023-03-17T06:35:34.743Z,100.00
2023-03-17T06:38:03.809Z,100.00
2023-03-17T06:40:32.457Z,100.00
2023-03-17T06:43:01.454Z,100.00
2023-03-17T06:45:30.046Z,100.00
2023-03-17T06:47:59.587Z,100.00
2023-03-17T06:50:27.764Z,100.00
2023-03-17T06:52:56.585Z,100.00
2023-03-17T06:55:24.508Z,100.00
2023-03-17T06:57:52.834Z,100.00
2023-03-17T07:00:22.913Z,100.00
2023-03-17T07:02:51.357Z,100.00
2023-03-17T07:05:19.598Z,100.00
2023-03-17T07:07:47.858Z,100.00
2023-03-17T07:10:18.663Z,100.00
2023-03-17T07:12:46.764Z,100.00
2023-03-17T07:15:15.087Z,100.00
2023-03-17T07:17:43.211Z,100.00
2023-03-17T07:20:12.233Z,100.00
2023-03-17T07:22:41.876Z,100.00
2023-03-17T07:25:11.094Z,100.00
2023-03-17T07:27:39.387Z,100.00
2023-03-17T07:30:08.741Z,100.00
2023-03-17T07:32:37.790Z,100.00
2023-03-17T07:35:07.701Z,100.00
2023-03-17T07:37:37.120Z,100.00
2023-03-17T07:40:06.669Z,100.00
2023-03-17T07:42:35.827Z,100.00
2023-03-17T07:45:06.127Z,100.00
2023-03-17T07:47:34.372Z,100.00
2023-03-17T07:50:02.482Z,100.00
2023-03-17T07:52:30.832Z,100.00
2023-03-17T07:54:59.553Z,100.00
2023-03-17T07:57:27.825Z,100.00
2023-03-17T07:59:56.129Z,100.00
2023-03-17T08:02:24.489Z,100.00
2023-03-17T08:04:54.185Z,100.00
2023-03-17T08:07:22.669Z,100.00
2023-03-17T08:09:51.289Z,100.00
2023-03-17T08:12:20.323Z,100.00
2023-03-17T08:14:49.076Z,100.00
2023-03-17T08:17:17.990Z,100.00
2023-03-17T08:19:46.359Z,100.00
2023-03-17T08:22:14.577Z,100.00
2023-03-17T08:24:45.651Z,100.00
2023-03-17T08:27:14.195Z,100.00
2023-03-17T08:29:43.117Z,100.00
2023-03-17T08:32:15.134Z,100.00
2023-03-17T08:34:44.659Z,100.00
2023-03-17T08:37:13.450Z,100.00
2023-03-17T08:39:43.422Z,100.00
2023-03-17T08:42:12.047Z,100.00
2023-03-17T08:44:42.869Z,100.00
2023-03-17T08:47:12.469Z,100.00
2023-03-17T08:49:41.148Z,100.00
2023-03-17T08:52:10.121Z,100.00
2023-03-17T08:54:38.366Z,100.00
2023-03-17T08:57:09.146Z,100.00
2023-03-17T08:59:37.332Z,100.00
2023-03-17T09:02:05.904Z,100.00
2023-03-17T09:04:35.077Z,100.00
2023-03-17T09:07:04.352Z,100.00
2023-03-17T09:09:35.533Z,100.00
2023-03-17T09:12:06.394Z,100.00
2023-03-17T09:14:43.490Z,100.00
2023-03-17T09:17:14.572Z,100.00
2023-03-17T09:19:43.984Z,100.00
2023-03-17T09:22:18.917Z,100.00
2023-03-17T09:24:47.441Z,100.00
2023-03-17T09:27:15.852Z,100.00
2023-03-17T09:29:44.239Z,100.00
2023-03-17T09:32:12.660Z,99.95
2023-03-17T09:34:42.177Z,100.00
2023-03-17T09:37:10.424Z,100.00
2023-03-17T09:39:39.054Z,99.19
2023-03-17T09:42:42.159Z,97.79
2023-03-17T09:45:20.478Z,98.80
2023-03-17T09:48:29.381Z,96.19
2023-03-17T09:51:14.021Z,98.64
2023-03-17T09:54:00.388Z,97.29
2023-03-17T09:56:33.143Z,98.65
2023-03-17T09:59:34.877Z,93.25
2023-03-17T10:02:03.409Z,96.93
2023-03-17T10:04:31.910Z,90.63
2023-03-17T10:07:07.055Z,89.75
2023-03-17T10:09:46.694Z,90.98
2023-03-17T10:12:39.276Z,91.23
2023-03-17T10:15:25.429Z,88.58
2023-03-17T10:17:53.998Z,86.00
2023-03-17T10:20:27.323Z,85.33
2023-03-17T10:23:06.219Z,86.37
2023-03-17T10:25:36.716Z,84.63
2023-03-17T10:28:29.343Z,86.24
2023-03-17T10:31:18.015Z,86.28
2023-03-17T10:33:52.738Z,87.36
2023-03-17T10:36:44.483Z,87.53
2023-03-17T10:39:19.085Z,85.37
2023-03-17T10:42:07.636Z,83.96
2023-03-17T10:44:58.844Z,85.57
2023-03-17T10:47:54.580Z,84.53
2023-03-17T10:50:35.052Z,83.71
2023-03-17T10:53:09.200Z,84.83
2023-03-17T10:55:51.268Z,83.50
2023-03-17T10:58:24.097Z,81.03
2023-03-17T11:01:08.516Z,83.06
2023-03-17T11:03:40.035Z,80.91
2023-03-17T11:06:39.649Z,80.56
2023-03-17T11:09:19.631Z,79.83
2023-03-17T11:12:01.936Z,80.51
2023-03-17T11:14:30.419Z,77.88
2023-03-17T11:17:04.722Z,79.15
2023-03-17T11:19:58.293Z,79.88
2023-03-17T11:22:38.189Z,79.75
2023-03-17T11:25:23.670Z,79.18
2023-03-17T11:28:03.830Z,75.67
2023-03-17T11:30:43.619Z,75.25
2023-03-17T11:33:55.345Z,77.54
2023-03-17T11:37:10.232Z,76.01
2023-03-17T11:40:08.065Z,74.15
2023-03-17T11:43:19.089Z,73.54
2023-03-17T11:46:35.209Z,73.09
2023-03-17T11:49:18.986Z,74.12
2023-03-17T11:52:04.429Z,73.29
2023-03-17T11:55:13.018Z,73.18
2023-03-17T11:58:00.575Z,72.51
2023-03-17T12:00:42.745Z,71.29
2023-03-17T12:03:46.822Z,72.41
2023-03-17T12:06:28.413Z,71.39
2023-03-17T12:09:16.240Z,71.48
2023-03-17T12:11:46.721Z,72.18
2023-03-17T12:14:52.693Z,70.08
2023-03-17T12:17:39.383Z,70.93
2023-03-17T12:20:19.170Z,68.76
2023-03-17T12:23:12.235Z,70.55
2023-03-17T12:26:10.982Z,70.04
2023-03-17T12:29:02.343Z,69.83
2023-03-17T12:31:45.193Z,68.98
2023-03-17T12:34:57.405Z,68.78
2023-03-17T12:37:30.657Z,67.75
2023-03-17T12:40:07.391Z,68.07
2023-03-17T12:43:05.175Z,67.75
2023-03-17T12:46:29.317Z,66.53
2023-03-17T12:49:36.259Z,68.06
2023-03-17T12:52:46.486Z,68.21
2023-03-17T12:55:18.764Z,66.59
2023-03-17T12:58:05.972Z,67.37
2023-03-17T13:00:50.829Z,66.12
2023-03-17T13:03:33.629Z,65.31
2023-03-17T13:06:16.665Z,66.88
2023-03-17T13:08:44.715Z,65.74
2023-03-17T13:11:34.929Z,66.78
2023-03-17T13:14:41.386Z,67.45
2023-03-17T13:17:18.040Z,67.51
2023-03-17T13:20:19.652Z,66.89
2023-03-17T13:23:24.380Z,68.56
2023-03-17T13:25:53.968Z,69.18
2023-03-17T13:28:44.508Z,67.35
2023-03-17T13:31:36.819Z,68.79
2023-03-17T13:34:16.542Z,69.05
2023-03-17T13:37:14.168Z,68.20
2023-03-17T13:40:11.212Z,66.23
2023-03-17T13:43:29.374Z,68.02
2023-03-17T13:46:38.953Z,66.17
2023-03-17T13:49:19.408Z,68.93
2023-03-17T13:52:02.036Z,68.56
2023-03-17T13:54:35.593Z,65.87
2023-03-17T13:57:39.619Z,67.60
2023-03-17T14:00:19.970Z,67.63
2023-03-17T14:02:50.358Z,69.06
2023-03-17T14:05:35.703Z,68.17
2023-03-17T14:08:22.000Z,68.55
2023-03-17T14:11:01.865Z,70.18
2023-03-17T14:13:43.725Z,69.54
2023-03-17T14:16:32.267Z,70.41
2023-03-17T14:19:28.622Z,69.15
2023-03-17T14:22:04.764Z,68.41
2023-03-17T14:24:34.687Z,68.87
2023-03-17T14:27:08.060Z,69.80
2023-03-17T14:29:37.772Z,69.12
2023-03-17T14:32:18.660Z,69.42
2023-03-17T14:34:54.632Z,71.01
2023-03-17T14:37:23.688Z,71.16
2023-03-17T14:39:56.542Z,70.65
2023-03-17T14:42:31.108Z,73.12
2023-03-17T14:45:06.814Z,72.59
2023-03-17T14:47:41.745Z,70.62
2023-03-17T14:50:29.898Z,71.96
2023-03-17T14:53:01.811Z,71.81
2023-03-17T14:55:43.637Z,71.10
2023-03-17T14:58:31.424Z,69.36
2023-03-17T15:01:35.296Z,69.70
2023-03-17T15:04:33.499Z,69.60
2023-03-17T15:07:04.716Z,69.28
2023-03-17T15:09:37.877Z,69.13
2023-03-17T15:12:18.260Z,70.03
2023-03-17T15:14:50.699Z,71.75
2023-03-17T15:17:23.148Z,71.57
2023-03-17T15:19:55.158Z,71.07
2023-03-17T15:22:31.285Z,69.36
2023-03-17T15:25:38.263Z,69.54
2023-03-17T15:28:17.203Z,71.07
2023-03-17T15:30:50.549Z,71.49
2023-03-17T15:33:29.894Z,71.29
2023-03-17T15:36:00.202Z,70.75
2023-03-17T15:38:28.915Z,70.96
2023-03-17T15:40:57.581Z,71.33
2023-03-17T15:43:26.274Z,72.15
2023-03-17T15:46:11.347Z,72.18
2023-03-17T15:48:39.848Z,72.72
2023-03-17T15:51:08.529Z,72.82
2023-03-17T15:53:36.655Z,74.48
2023-03-17T15:56:04.856Z,75.50
2023-03-17T15:58:33.082Z,75.60
2023-03-17T16:01:03.836Z,74.78
2023-03-17T16:03:34.857Z,75.77
2023-03-17T16:06:13.300Z,76.11
2023-03-17T16:08:41.908Z,76.08
2023-03-17T16:11:28.473Z,76.23
2023-03-17T16:14:00.153Z,76.86
2023-03-17T16:16:41.245Z,77.21
2023-03-17T16:19:23.382Z,78.28
2023-03-17T16:21:52.381Z,78.26
2023-03-17T16:24:25.966Z,78.71
2023-03-17T16:26:54.237Z,78.63
2023-03-17T16:29:22.965Z,79.24
2023-03-17T16:31:51.705Z,79.38
2023-03-17T16:34:24.202Z,80.09
2023-03-17T16:36:54.308Z,81.45
2023-03-17T16:39:23.976Z,81.83
2023-03-17T16:41:53.860Z,82.99
2023-03-17T16:44:25.968Z,83.75
2023-03-17T16:46:54.239Z,84.86
2023-03-17T16:49:23.343Z,85.30
2023-03-17T16:51:52.187Z,84.78
2023-03-17T16:54:20.374Z,85.31
2023-03-17T16:56:49.205Z,85.78
2023-03-17T16:59:21.861Z,85.76
2023-03-17T17:01:49.969Z,86.76
2023-03-17T17:04:18.213Z,86.90
2023-03-17T17:06:46.264Z,87.62
2023-03-17T17:09:14.382Z,87.72
2023-03-17T17:11:43.098Z,88.39
2023-03-17T17:14:11.400Z,88.39
2023-03-17T17:16:40.459Z,89.23
2023-03-17T17:19:26.994Z,89.99
2023-03-17T17:21:55.000Z,90.70
2023-03-17T17:24:23.178Z,90.93
2023-03-17T17:26:51.325Z,92.04
2023-03-17T17:29:19.405Z,92.73
2023-03-17T17:31:47.445Z,93.77
2023-03-17T17:34:15.816Z,94.47
2023-03-17T17:36:44.293Z,95.14
2023-03-17T17:39:12.412Z,95.84
2023-03-17T17:41:40.709Z,96.20
2023-03-17T17:44:08.943Z,97.28
2023-03-17T17:46:37.840Z,97.42
2023-03-17T17:49:08.894Z,98.14
2023-03-17T17:51:37.139Z,98.62
2023-03-17T17:54:06.051Z,98.85
2023-03-17T17:56:38.290Z,99.08
2023-03-17T17:59:07.184Z,99.70
2023-03-17T18:01:35.401Z,100.00
2023-03-17T18:04:04.116Z,100.00
2023-03-17T18:06:32.406Z,100.00
2023-03-17T18:09:00.733Z,100.00
2023-03-17T18:11:29.186Z,100.00
2023-03-17T18:13:57.658Z,100.00
2023-03-17T18:16:25.956Z,100.00
2023-03-17T18:18:54.284Z,100.00
2023-03-17T18:21:23.273Z,100.00
2023-03-17T18:23:55.673Z,100.00
2023-03-17T18:26:24.658Z,100.00
2023-03-17T18:28:53.078Z,100.00
2023-03-17T18:31:37.557Z,100.00
2023-03-17T18:34:12.936Z,100.00
2023-03-17T18:36:41.562Z,100.00
2023-03-17T18:39:09.765Z,100.00
2023-03-17T18:41:38.724Z,100.00
2023-03-17T18:44:10.486Z,100.00
2023-03-17T18:46:39.666Z,100.00
2023-03-17T18:49:09.184Z,100.00
2023-03-17T18:51:38.033Z,100.00
2023-03-17T18:54:06.740Z,100.00
2023-03-17T18:56:35.131Z,100.00
2023-03-17T18:59:03.760Z,100.00
2023-03-17T19:01:32.865Z,100.00
2023-03-17T19:04:01.584Z,100.00
2023-03-17T19:06:30.325Z,100.00
2023-03-17T19:08:58.780Z,100.00
2023-03-17T19:11:27.353Z,100.00
2023-03-17T19:13:56.036Z,100.00
2023-03-17T19:16:29.128Z,100.00
2023-03-17T19:18:59.832Z,100.00
2023-03-17T19:21:28.576Z,100.00
2023-03-17T19:24:01.478Z,100.00
2023-03-17T19:26:31.463Z,100.00
2023-03-17T19:29:00.143Z,100.00
2023-03-17T19:31:28.596Z,100.00
2023-03-17T19:33:56.833Z,100.00
2023-03-17T19:36:25.530Z,100.00
2023-03-17T19:38:53.824Z,100.00
2023-03-17T19:41:23.695Z,100.00
2023-03-17T19:43:52.594Z,100.00
2023-03-17T19:46:22.014Z,100.00
2023-03-17T19:48:50.439Z,100.00
2023-03-17T19:51:18.544Z,100.00
2023-03-17T19:53:46.818Z,100.00
2023-03-17T19:56:15.513Z,100.00
2023-03-17T19:58:43.846Z,100.00
2023-03-17T20:01:13.962Z,100.00
2023-03-17T20:03:42.743Z,100.00
2023-03-17T20:06:13.330Z,100.00
2023-03-17T20:08:43.351Z,100.00
2023-03-17T20:11:13.480Z,100.00
2023-03-17T20:13:43.031Z,100.00
2023-03-17T20:16:13.498Z,100.00
2023-03-17T20:18:42.003Z,100.00
2023-03-17T20:21:16.567Z,100.00
2023-03-17T20:23:45.128Z,100.00
2023-03-17T20:26:13.409Z,100.00
2023-03-17T20:28:41.879Z,100.00
2023-03-17T20:31:10.434Z,100.00
2023-03-17T20:33:38.634Z,100.00
2023-03-17T20:36:07.350Z,100.00
2023-03-17T20:38:39.089Z,100.00
2023-03-17T20:41:26.040Z,100.00
2023-03-17T20:43:54.162Z,100.00
2023-03-17T20:46:25.530Z,100.00
2023-03-17T20:48:58.992Z,100.00
2023-03-17T20:51:27.799Z,100.00
2023-03-17T20:53:56.914Z,100.00
2023-03-17T20:56:27.134Z,100.00
2023-03-17T20:58:56.496Z,100.00
2023-03-17T21:01:25.783Z,100.00
2023-03-17T21:03:53.989Z,100.00
2023-03-17T21:06:25.581Z,100.00
2023-03-17T21:08:55.558Z,100.00
2023-03-17T21:11:26.631Z,100.00
2023-03-17T21:13:55.945Z,100.00
2023-03-17T21:16:28.457Z,100.00
2023-03-17T21:18:57.275Z,100.00
2023-03-17T21:21:27.206Z,100.00
2023-03-17T21:23:56.440Z,100.00
2023-03-17T21:26:26.621Z,100.00
2023-03-17T21:28:56.932Z,100.00
2023-03-17T21:31:25.145Z,100.00
2023-03-17T21:33:53.442Z,100.00
2023-03-17T21:36:22.137Z,100.00
2023-03-17T21:38:51.827Z,100.00
2023-03-17T21:41:25.022Z,100.00
2023-03-17T21:43:53.269Z,100.00
2023-03-17T21:46:21.813Z,100.00
2023-03-17T21:48:50.472Z,100.00
2023-03-17T21:51:19.041Z,100.00
2023-03-17T21:53:47.798Z,100.00
2023-03-17T21:56:17.086Z,100.00
2023-03-17T21:58:45.770Z,100.00
2023-03-17T22:01:14.764Z,100.00
2023-03-17T22:03:43.475Z,100.00
2023-03-17T22:06:13.474Z,100.00
2023-03-17T22:08:41.560Z,100.00
2023-03-17T22:11:13.607Z,100.00
2023-03-17T22:13:43.151Z,100.00
2023-03-17T22:16:13.063Z,100.00
2023-03-17T22:18:42.129Z,100.00
2023-03-17T22:21:11.000Z,100.00
2023-03-17T22:23:42.991Z,100.00
2023-03-17T22:26:22.896Z,100.00
2023-03-17T22:28:51.870Z,100.00
2023-03-17T22:31:27.289Z,100.00
2023-03-17T22:33:59.629Z,100.00
2023-03-17T22:36:29.535Z,100.00
2023-03-17T22:41:46.350Z,100.00
2023-03-17T22:44:14.496Z,100.00
2023-03-17T22:46:42.943Z,100.00
2023-03-17T22:49:11.764Z,100.00
2023-03-17T22:51:43.478Z,100.00
2023-03-17T22:54:12.322Z,100.00
2023-03-17T22:56:40.443Z,100.00
2023-03-17T22:59:08.662Z,100.00
2023-03-17T23:01:36.796Z,100.00
2023-03-17T23:04:05.104Z,100.00
2023-03-17T23:06:33.230Z,100.00
2023-03-17T23:09:01.326Z,100.00
2023-03-17T23:11:29.627Z,100.00
2023-03-17T23:13:57.806Z,100.00
2023-03-17T23:16:25.973Z,100.00
2023-03-17T23:18:54.540Z,100.00
2023-03-17T23:21:39.343Z,100.00
2023-03-17T23:24:08.867Z,100.00
2023-03-17T23:26:38.133Z,100.00
2023-03-17T23:29:10.738Z,100.00
2023-03-17T23:31:39.923Z,100.00
2023-03-17T23:34:09.195Z,100.00
2023-03-17T23:36:40.432Z,100.00
2023-03-17T23:39:09.279Z,100.00
2023-03-17T23:41:37.400Z,100.00
2023-03-17T23:44:06.848Z,100.00
2023-03-17T23:46:34.904Z,100.00
2023-03-17T23:49:04.666Z,100.00
2023-03-17T23:51:33.590Z,100.00
2023-03-17T23:54:01.814Z,100.00
2023-03-17T23:56:29.811Z,100.00
2023-03-17T23:58:58.054Z,100.00
